• Join FlightAware (Why Join?)
  • Login
  • US Flag 
08:07PM EDT


 

Airport Tracker/Info


-or-


 

Live Flight TrackerFlight Track Log ✈ N173AA ✈ 22-Apr-2013 ✈ KPGV - KANB

Flight Track Log - Related Links

Times and Time Zones

All times are in EDT time to prevent confusion due to time zone crossing. See the N173AA flight status page for this flight to view local times or setup timezone preferences in your user account.

Time Position Orientation Groundspeed Altitude Reporting Facility
EDT Latitude Longitude Course Direction KTS MPH feet Rate Location/Type
09:34AM 35.7853 -78.3036 107° East 263 303 7,400  Level Washington Center
09:35AM 35.7661 -78.2261 107° East 268 308 7,400  Level Washington Center
09:36AM 35.7472 -78.1383 105° East 268 308 7,400  Level Washington Center
09:37AM 35.7281 -78.0483 105° East 268 308 7,400  Level Washington Center
09:38AM 35.7092 -77.9556 104° East 268 308 7,400  Level Washington Center
09:39AM 35.6922 -77.8656 103° East 268 308 7,400  Level Washington Center
09:40AM 35.6731 -77.7781 105° East 268 308 7,500  Climbing Washington Center
09:41AM 35.6558 -77.6883 103° East 268 308 7,500 -300 Level Washington Center
09:42AM 35.6406 -77.6008 102° East 268 308 7,000 -60 Descending Washington Center
09:44AM 35.6069 -77.7612 258° West  Level Estimated
09:51AM 35.4661 -78.4202 256° West  Level Estimated
09:52AM 35.4173 -78.4968 232° Southwest  Level FlightAware Approximate
09:53AM 35.3972 -78.5908 256° West  Level Estimated
09:54AM 35.3770 -78.6847 253° West  Level Estimated
09:55AM 35.3568 -78.7786 260° West  Level Estimated
09:56AM 35.3365 -78.8725 251° West  Level Estimated
09:57AM 35.3005 -78.9589 243° Southwest  Level FlightAware Approximate
09:58AM 35.2802 -79.0527 258° West  Level Estimated
09:59AM 35.2599 -79.1465 258° West  Level Estimated
10:00AM 35.2416 -79.2409 257° West  Level FlightAware Approximate
10:01AM 35.2211 -79.3345 251° West  Level Estimated
10:02AM 35.2006 -79.4282 255° West  Level Estimated
10:03AM 35.1795 -79.5216 255° West  Level FlightAware Approximate
10:04AM 35.1584 -79.6150 255° West  Level FlightAware Approximate
10:05AM 35.1372 -79.7083 255° West  Level FlightAware Approximate
10:06AM 35.1160 -79.8016 254° West  Level FlightAware Approximate
10:07AM 35.0947 -79.8948 254° West  Level FlightAware Approximate
10:08AM 35.0737 -79.9882 255° West  Level Estimated
10:09AM 35.0527 -80.0815 255° West  Level FlightAware Approximate
10:10AM 35.0316 -80.1747 255° West  Level FlightAware Approximate
10:11AM 35.0104 -80.2679 255° West  Level FlightAware Approximate
10:12AM 34.9892 -80.3611 254° West  Level FlightAware Approximate
10:13AM 34.9679 -80.4542 254° West  Level FlightAware Approximate
10:14AM 34.9465 -80.5472 254° West  Level FlightAware Approximate
10:15AM 34.9251 -80.6402 254° West  Level FlightAware Approximate
10:16AM 34.9036 -80.7332 254° West  Level FlightAware Approximate
10:17AM 34.8820 -80.8261 254° West  Level FlightAware Approximate
10:18AM 34.8603 -80.9190 254° West  Level FlightAware Approximate
10:19AM 34.8386 -81.0118 254° West  Level FlightAware Approximate
10:20AM 34.8168 -81.1045 254° West  Level FlightAware Approximate
10:21AM 34.7949 -81.1973 254° West  Level FlightAware Approximate
10:22AM 34.7730 -81.2899 254° West  Level Estimated
10:23AM 34.7508 -81.3825 254° West  Level FlightAware Approximate
10:24AM 34.7286 -81.4750 254° West  Level FlightAware Approximate
10:25AM 34.7063 -81.5674 254° West  Level FlightAware Approximate
10:26AM 34.6839 -81.6598 254° West  Level FlightAware Approximate
10:27AM 34.6614 -81.7522 254° West  Level FlightAware Approximate
10:28AM 34.6389 -81.8445 254° West  Level FlightAware Approximate
10:28AM 35.6800 -77.4867 298° West 362 417 4,800  Level Washington Center
10:29AM 34.6163 -81.9367 253° West  Level FlightAware Approximate
10:29AM 35.6789 -77.5608 269° West 287 330 7,000  Level Washington Center
10:30AM 34.5937 -82.0289 253° West  Level FlightAware Approximate
10:30AM 35.6881 -77.6328 279° West 246 283 8,700  Level Washington Center
10:31AM 34.5709 -82.1211 253° West  Level FlightAware Approximate
10:31AM 35.7033 -77.7125 283° West 233 268 10,400  Level Washington Center
10:32AM 34.5481 -82.2132 253° West  Level FlightAware Approximate
10:32AM 35.7164 -77.7922 281° West 233 268 12,000  Level Washington Center
10:33AM 35.7317 -77.8769 283° West 245 282 13,500 1,680 Climbing Washington Center
10:34AM 35.7486 -77.9619 284° West 250 288 15,400 1,680 Climbing Washington Center
10:36AM 35.7769 -78.1164 283° West 238 274 18,600 1,560 Climbing Washington Center
10:37AM 35.7875 -78.2039 278° West 233 268 20,200 1,440 Climbing Washington Center
10:39AM 35.8172 -78.3661 283° West 238 274 23,000 1,320 Climbing Washington Center
10:40AM 35.8322 -78.4436 283° West 238 274 24,200 4,440 Climbing Washington Center
10:41AM 35.8425 -78.5258 279° West 238 274 32,000 360 Climbing Washington Center
10:42AM 35.8508 -78.6183 276° West 245 282 25,000 -3,300 Descending Washington Center
10:43AM 35.8628 -78.7164 279° West 274 315 25,500 480 Climbing Washington Center
10:44AM 35.8769 -78.8092 281° West 281 323 26,000 540 Climbing Washington Center
10:45AM 35.8539 -78.8953 252° West 265 305 26,600 600 Climbing Washington Center
10:46AM 35.8267 -78.9761 247° West 265 305 27,300 720 Climbing Washington Center
10:47AM 35.8014 -79.0544 248° West 260 299 28,100 780 Climbing Washington Center
10:48AM 35.7761 -79.1303 248° West 248 285 28,900 900 Climbing Washington Center
10:49AM 35.7531 -79.2058 249° West 248 285 29,900 960 Climbing Washington Center
10:50AM 35.7300 -79.2739 247° West 242 278 30,900 960 Climbing Washington Center
10:51AM 35.7072 -79.3419 248° West 230 265 31,900 540 Climbing Washington Center
10:52AM 35.6839 -79.4175 249° West 230 265 32,000  Climbing Washington Center
10:54AM 35.6336 -79.5928 251° West 246 283 32,000  Level Atlanta Center
10:55AM 35.6139 -79.6808 255° West 263 303 32,000  Level Atlanta Center
10:56AM 35.5878 -79.7689 250° West 273 314 32,000  Level Atlanta Center
10:57AM 35.5636 -79.8569 251° West 273 314 32,000  Level Atlanta Center
10:58AM 35.5372 -79.9450 250° West 273 314 32,000  Level Atlanta Center
10:59AM 35.5108 -80.0281 249° West 273 314 32,000  Level Atlanta Center
11:00AM 35.4806 -80.1264 249° West 273 314 32,000  Level Atlanta Center
11:01AM 35.4522 -80.2144 248° West 273 314 32,000  Level Atlanta Center
11:02AM 35.4236 -80.3050 249° West 273 314 32,000  Level Atlanta Center
11:03AM 35.3972 -80.3956 250° West 273 314 32,000  Level Atlanta Center
11:04AM 35.3686 -80.4858 249° West 283 326 32,000  Level Atlanta Center
11:05AM 35.3417 -80.5736 249° West 283 326 32,000  Level Atlanta Center
11:06AM 35.3111 -80.6664 248° West 283 326 32,000  Level Atlanta Center
11:07AM 35.2864 -80.7617 252° West 292 336 32,000  Level Atlanta Center
11:08AM 35.2617 -80.8467 250° West 292 336 32,000  Level Atlanta Center
11:09AM 35.2347 -80.9367 250° West 292 336 32,000  Level Atlanta Center
11:10AM 35.2078 -81.0292 250° West 292 336 32,000  Level Atlanta Center
11:11AM 35.1786 -81.1217 249° West 292 336 32,000  Level Atlanta Center
11:12AM 35.1478 -81.2244 250° West 292 336 32,000  Level Atlanta Center
11:13AM 35.1186 -81.3192 249° West 292 336 32,000  Level Atlanta Center
11:14AM 35.0892 -81.4092 248° West 292 336 32,000  Level Atlanta Center
11:15AM 35.0578 -81.4989 247° West 292 336 32,000  Level Atlanta Center
11:16AM 35.0283 -81.5961 250° West 299 344 32,000  Level Atlanta Center
11:17AM 35.0011 -81.6908 251° West 299 344 32,000  Level Atlanta Center
11:18AM 34.9714 -81.7853 249° West 292 336 32,000  Level Atlanta Center
11:19AM 34.9436 -81.8647 247° West 294 338 32,000  Level Atlanta Center
11:20AM 34.9161 -81.9592 250° West 294 338 32,000  Level Atlanta Center
11:21AM 34.8864 -82.0486 248° West 289 333 32,000  Level Atlanta Center
11:22AM 34.8564 -82.1403 248° West 294 338 32,000  Level Atlanta Center
11:23AM 34.8267 -82.2372 250° West 299 344 32,000  Level Atlanta Center
11:24AM 34.7967 -82.3289 248° West 299 344 32,000  Level Atlanta Center
11:25AM 34.7644 -82.4231 247° West 299 344 32,000  Level Atlanta Center
11:26AM 34.7344 -82.5147 248° West 299 344 32,000  Level Atlanta Center
11:27AM 34.7003 -82.6189 248° West 299 344 32,000  Level Atlanta Center
11:28AM 34.6678 -82.7103 247° West 299 344 32,000  Level Atlanta Center
11:29AM 34.6375 -82.8017 248° West 299 344 32,000  Level Atlanta Center
11:30AM 34.6092 -82.8956 250° West 299 344 32,000  Level Atlanta Center
11:31AM 34.5786 -82.9892 248° West 291 335 32,000  Level Atlanta Center
11:32AM 34.5522 -83.0703 248° West 296 341 32,000  Level Atlanta Center
11:33AM 34.5236 -83.1639 250° West 296 341 32,000  Level Atlanta Center
11:34AM 34.4950 -83.2550 249° West 291 335 32,000  Level Atlanta Center
11:35AM 34.4664 -83.3433 249° West 291 335 32,000  Level Atlanta Center
11:36AM 34.4314 -83.4319 244° Southwest 291 335 32,000  Level Atlanta Center
11:37AM 34.4025 -83.5253 249° West 296 341 32,000  Level Atlanta Center
11:38AM 34.3736 -83.6186 249° West 296 341 32,000  Level Atlanta Center
11:39AM 34.3406 -83.7167 248° West 296 341 32,000 -300 Level Atlanta Center
11:40AM 34.3033 -83.8100 244° Southwest 301 346 31,400 -660 Descending Atlanta Center
11:41AM 34.2681 -83.9056 246° West 306 352 30,700 -720 Descending Atlanta Center
11:42AM 34.2492 -84.0136 258° West 317 365 30,000 -660 Descending Atlanta Center
11:43AM 34.2450 -84.1167 267° West 317 365 29,400 -960 Descending Atlanta Center
11:44AM 34.2367 -84.2297 265° West 322 371 28,100 -1,320 Descending Atlanta Center
11:45AM 34.2322 -84.3428 267° West 339 390 26,800 -1,260 Descending Atlanta Center
11:46AM 34.2236 -84.4583 265° West 344 396 25,600 -1,260 Descending Atlanta Center
11:47AM 34.2189 -84.5714 267° West 344 396 24,300 -1,260 Descending Atlanta Center
11:48AM 34.2122 -84.6844 266° West 349 402 23,100 -1,260 Descending Atlanta Center
11:49AM 34.2072 -84.7922 267° West 343 395 21,800 -1,320 Descending Atlanta Center
11:50AM 34.2003 -84.9003 266° West 331 381 20,500 -1,200 Descending Atlanta Center
11:51AM 34.1786 -85.0081 256° West 331 381 19,500 -840 Descending Atlanta Center
11:52AM 34.1050 -85.0700 215° Southwest 310 357 18,900 -660 Descending Atlanta Center
11:53AM 34.0192 -85.1014 197° South 306 352 18,200 -780 Descending Atlanta Center
11:54AM 33.9375 -85.1506 207° Southwest 328 377 17,400 -900 Descending Atlanta Center
11:55AM 33.8867 -85.2275 231° Southwest 323 372 16,400 -1,140 Descending Atlanta Center
11:56AM 33.8503 -85.3194 245° Southwest 313 360 15,200 -1,440 Descending Atlanta Center
11:57AM 33.8158 -85.4014 243° Southwest 298 343 13,600 -1,920 Descending Atlanta Center
11:58AM 33.7836 -85.4808 244° Southwest 272 313 11,400 -2,160 Descending Atlanta Center
11:59AM 33.7494 -85.5528 240° Southwest 258 297 9,300 -1,860 Descending Atlanta Center
12:00PM 33.7111 -85.6144 233° Southwest 246 283 7,700 -1,620 Descending Atlanta Center
12:01PM 33.6686 -85.6736 229° Southwest 240 276 6,100 -1,620 Descending Atlanta Center